createdAt,value
2023-03-03T00:02:09.786Z,98842.09
2023-03-03T00:07:31.562Z,98840.94
2023-03-03T00:12:53.399Z,98849.72
2023-03-03T00:18:26.347Z,98842.50
2023-03-03T00:23:48.079Z,98840.00
2023-03-03T00:29:24.242Z,98847.72
2023-03-03T00:34:45.999Z,98845.31
2023-03-03T00:40:21.561Z,98842.69
2023-03-03T00:45:46.006Z,98830.94
2023-03-03T00:51:22.740Z,98832.63
2023-03-03T00:56:44.636Z,98836.13
2023-03-03T01:02:07.468Z,98833.78
2023-03-03T01:07:29.179Z,98829.34
2023-03-03T01:12:50.915Z,98828.41
2023-03-03T01:18:13.051Z,98825.38
2023-03-03T01:23:34.878Z,98825.63
2023-03-03T01:28:56.640Z,98831.09
2023-03-03T01:34:18.378Z,98830.38
2023-03-03T01:39:40.134Z,98840.63
2023-03-03T01:45:39.276Z,98827.06
2023-03-03T01:51:03.779Z,98824.31
2023-03-03T01:56:26.816Z,98827.09
2023-03-03T02:01:49.371Z,98820.94
2023-03-03T02:07:14.162Z,98816.41
2023-03-03T02:12:40.444Z,98811.56
2023-03-03T02:18:07.168Z,98812.66
2023-03-03T02:23:38.192Z,98803.28
2023-03-03T02:29:00.167Z,98805.84
2023-03-03T02:34:21.941Z,98807.72
2023-03-03T02:39:44.482Z,98798.25
2023-03-03T02:45:06.956Z,98805.72
2023-03-03T02:50:28.748Z,98813.53
2023-03-03T02:55:50.469Z,98815.00
2023-03-03T03:01:12.407Z,98823.31
2023-03-03T03:06:34.306Z,98818.16
2023-03-03T03:11:56.155Z,98823.13
2023-03-03T03:17:17.948Z,98818.91
2023-03-03T03:22:39.672Z,98817.81
2023-03-03T03:28:02.098Z,98816.91
2023-03-03T03:33:24.305Z,98821.09
2023-03-03T03:38:46.062Z,98819.75
2023-03-03T03:44:07.898Z,98813.69
2023-03-03T03:49:29.650Z,98814.53
2023-03-03T03:54:51.377Z,98816.34
2023-03-03T04:00:13.468Z,98822.03
2023-03-03T04:05:35.434Z,98815.53
2023-03-03T04:10:57.144Z,98815.72
2023-03-03T04:16:18.899Z,98817.31
2023-03-03T04:21:40.604Z,98818.34
2023-03-03T04:27:02.329Z,98831.81
2023-03-03T04:32:24.102Z,98832.69
2023-03-03T04:37:45.907Z,98834.41
2023-03-03T04:43:07.973Z,98834.22
2023-03-03T04:48:30.205Z,98837.53
2023-03-03T04:53:51.976Z,98848.22
2023-03-03T04:59:13.896Z,98855.53
2023-03-03T05:04:36.730Z,98851.25
2023-03-03T05:09:58.477Z,98848.13
2023-03-03T05:15:20.205Z,98849.66
2023-03-03T05:20:42.638Z,98845.34
2023-03-03T05:26:04.720Z,98854.38
2023-03-03T05:31:27.249Z,98863.28
2023-03-03T05:36:49.088Z,98854.84
2023-03-03T05:42:13.127Z,98864.03
2023-03-03T05:47:34.862Z,98877.75
2023-03-03T05:52:57.153Z,98882.25
2023-03-03T05:58:18.880Z,98882.09
2023-03-03T06:03:40.628Z,98885.34
2023-03-03T06:09:02.746Z,98887.81
2023-03-03T06:14:27.063Z,98886.38
2023-03-03T06:19:49.062Z,98899.66
2023-03-03T06:25:10.945Z,98896.97
2023-03-03T06:30:33.410Z,98900.22
2023-03-03T06:35:55.416Z,98912.31
2023-03-03T06:41:17.318Z,98914.97
2023-03-03T06:46:39.232Z,98924.94
2023-03-03T06:52:09.587Z,98922.19
2023-03-03T06:57:34.002Z,98934.31
2023-03-03T07:03:23.458Z,98933.97
2023-03-03T07:08:45.209Z,98934.47
2023-03-03T07:14:16.274Z,98946.59
2023-03-03T07:19:40.160Z,98959.09
2023-03-03T07:25:18.163Z,98948.22
2023-03-03T07:30:40.617Z,98955.47
2023-03-03T07:36:04.142Z,98947.72
2023-03-03T07:41:26.473Z,98953.59
2023-03-03T07:46:50.453Z,98957.50
2023-03-03T07:52:25.936Z,98959.41
2023-03-03T07:57:50.408Z,98956.53
2023-03-03T08:03:19.317Z,98966.00
2023-03-03T08:08:43.714Z,98974.91
2023-03-03T08:14:11.699Z,98973.31
2023-03-03T08:19:34.255Z,98971.34
2023-03-03T08:24:56.003Z,98972.97
2023-03-03T08:30:17.901Z,98975.63
2023-03-03T08:35:39.978Z,98972.72
2023-03-03T08:41:01.971Z,98968.28
2023-03-03T08:46:23.797Z,98966.78
2023-03-03T08:51:45.627Z,98987.13
2023-03-03T08:57:08.004Z,98980.78
2023-03-03T09:02:29.701Z,98985.16
2023-03-03T09:07:51.931Z,98994.13
2023-03-03T09:13:16.984Z,98995.94
2023-03-03T09:18:39.577Z,99000.44
2023-03-03T09:24:01.679Z,99009.97
2023-03-03T09:29:37.296Z,99010.25
2023-03-03T09:35:00.430Z,99009.50
2023-03-03T09:41:02.329Z,99012.59
2023-03-03T09:46:33.807Z,99003.00
2023-03-03T09:52:23.702Z,98996.00
2023-03-03T09:58:10.878Z,98999.69
2023-03-03T10:04:02.724Z,99000.50
2023-03-03T10:09:54.979Z,99003.50
2023-03-03T10:15:26.342Z,98999.97
2023-03-03T10:20:59.577Z,99007.13
2023-03-03T10:26:44.342Z,99003.47
2023-03-03T10:32:31.047Z,99000.03
2023-03-03T10:38:02.434Z,99008.81
2023-03-03T10:43:44.026Z,98998.00
2023-03-03T10:49:17.806Z,99002.81
2023-03-03T10:54:51.520Z,98996.59
2023-03-03T11:00:33.455Z,98991.56
2023-03-03T11:06:00.033Z,98998.69
2023-03-03T11:11:41.772Z,98990.72
2023-03-03T11:17:12.204Z,98995.28
2023-03-03T11:22:44.542Z,98998.56
2023-03-03T11:28:08.940Z,99009.34
2023-03-03T11:33:43.262Z,99005.59
2023-03-03T11:39:16.331Z,99003.34
2023-03-03T11:44:44.488Z,98988.84
2023-03-03T11:50:15.175Z,98988.06
2023-03-03T11:55:39.513Z,98985.81
2023-03-03T12:01:23.030Z,98979.47
2023-03-03T12:07:18.214Z,98961.25
2023-03-03T12:12:48.232Z,98956.25
2023-03-03T12:18:34.768Z,98958.22
2023-03-03T12:23:59.597Z,98950.00
2023-03-03T12:29:41.188Z,98946.59
2023-03-03T12:35:32.206Z,98940.97
2023-03-03T12:41:13.949Z,98941.19
2023-03-03T12:46:52.060Z,98938.81
2023-03-03T12:52:33.401Z,98927.94
2023-03-03T12:58:04.379Z,98936.63
2023-03-03T13:03:55.062Z,98931.72
2023-03-03T13:09:22.819Z,98927.34
2023-03-03T13:14:56.462Z,98930.84
2023-03-03T13:20:51.085Z,98928.25
2023-03-03T13:26:25.730Z,98926.28
2023-03-03T13:31:52.450Z,98925.28
2023-03-03T13:37:55.437Z,98912.09
2023-03-03T13:43:28.220Z,98911.03
2023-03-03T13:49:07.237Z,98902.31
2023-03-03T13:54:47.316Z,98910.66
2023-03-03T14:00:36.377Z,98903.44
2023-03-03T14:06:11.923Z,98910.81
2023-03-03T14:12:07.995Z,98889.59
2023-03-03T14:17:43.827Z,98888.69
2023-03-03T14:23:32.431Z,98885.25
2023-03-03T14:29:17.005Z,98887.84
2023-03-03T14:34:41.280Z,98885.34
2023-03-03T14:40:17.001Z,98875.03
2023-03-03T14:45:41.209Z,98876.75
2023-03-03T14:51:27.238Z,98881.50
2023-03-03T14:57:31.260Z,98884.41
2023-03-03T15:02:53.021Z,98878.88
2023-03-03T15:08:15.259Z,98869.88
2023-03-03T15:13:39.102Z,98870.06
2023-03-03T15:19:37.868Z,98874.03
2023-03-03T15:25:27.613Z,98864.38
2023-03-03T15:31:20.118Z,98863.59
2023-03-03T15:36:52.991Z,98865.75
2023-03-03T15:42:17.902Z,98864.38
2023-03-03T15:48:17.150Z,98862.22
2023-03-03T15:53:58.917Z,98865.19
2023-03-03T15:59:45.011Z,98861.50
2023-03-03T16:05:23.962Z,98863.22
2023-03-03T16:11:09.923Z,98871.03
2023-03-03T16:17:07.832Z,98875.19
2023-03-03T16:22:49.699Z,98883.19
2023-03-03T16:28:22.872Z,98885.03
2023-03-03T16:34:01.723Z,98883.75
2023-03-03T16:40:01.799Z,98898.13
2023-03-03T16:45:27.807Z,98901.41
2023-03-03T16:51:14.387Z,98918.19
2023-03-03T16:56:43.645Z,98930.34
2023-03-03T17:02:27.840Z,98929.69
2023-03-03T17:08:01.935Z,98928.38
2023-03-03T17:13:49.703Z,98941.63
2023-03-03T17:19:39.808Z,98942.25
2023-03-03T17:25:04.410Z,98947.38
2023-03-03T17:30:59.769Z,98953.78
2023-03-03T17:36:39.452Z,98963.94
2023-03-03T17:42:32.114Z,98968.97
2023-03-03T17:47:54.169Z,98980.03
2023-03-03T17:53:43.546Z,98987.59
2023-03-03T17:59:30.999Z,98991.31
2023-03-03T18:05:26.665Z,98994.88
2023-03-03T18:11:15.961Z,99005.50
2023-03-03T18:17:09.830Z,99012.06
2023-03-03T18:22:46.919Z,99008.84
2023-03-03T18:28:08.735Z,99012.25
2023-03-03T18:33:56.387Z,99010.84
2023-03-03T18:39:36.408Z,99025.16
2023-03-03T18:45:30.508Z,99031.97
2023-03-03T18:50:52.949Z,99035.56
2023-03-03T18:56:52.155Z,99043.34
2023-03-03T19:02:39.000Z,99047.91
2023-03-03T19:08:21.765Z,99051.59
2023-03-03T19:13:45.718Z,99062.84
2023-03-03T19:19:15.928Z,99053.84
2023-03-03T19:24:40.828Z,99053.81
2023-03-03T19:30:34.415Z,99061.59
2023-03-03T19:36:06.595Z,99071.63
2023-03-03T19:41:34.348Z,99063.19
2023-03-03T19:47:02.684Z,99065.66
2023-03-03T19:52:42.174Z,99076.06
2023-03-03T19:58:11.444Z,99076.34
2023-03-03T20:03:41.944Z,99077.81
2023-03-03T20:09:16.902Z,99082.91
2023-03-03T20:15:08.843Z,99085.34
2023-03-03T20:20:48.945Z,99087.78
2023-03-03T20:26:32.589Z,99093.72
2023-03-03T20:32:07.263Z,99096.53
2023-03-03T20:38:03.576Z,99095.41
2023-03-03T20:43:49.011Z,99101.50
2023-03-03T20:49:23.892Z,99097.03
2023-03-03T20:55:19.367Z,99100.25
2023-03-03T21:01:06.387Z,99110.44
2023-03-03T21:06:38.858Z,99120.31
2023-03-03T21:12:09.643Z,99114.56
2023-03-03T21:17:31.910Z,99117.53
2023-03-03T21:22:54.782Z,99116.03
2023-03-03T21:28:24.700Z,99122.41
2023-03-03T21:33:48.037Z,99126.16
2023-03-03T21:39:24.801Z,99128.22
2023-03-03T21:44:49.662Z,99127.56
2023-03-03T21:50:11.684Z,99124.84
2023-03-03T21:55:33.507Z,99126.19
2023-03-03T22:00:56.370Z,99123.88
2023-03-03T22:06:18.228Z,99117.97
2023-03-03T22:11:39.970Z,99121.44
2023-03-03T22:17:02.274Z,99134.69
2023-03-03T22:22:24.427Z,99127.69
2023-03-03T22:27:46.143Z,99132.09
2023-03-03T22:33:08.065Z,99126.13
2023-03-03T22:38:29.904Z,99127.19
2023-03-03T22:43:51.809Z,99118.50
2023-03-03T22:49:13.593Z,99127.41
2023-03-03T22:54:35.344Z,99122.47
2023-03-03T22:59:57.060Z,99134.78
2023-03-03T23:05:18.936Z,99141.75
2023-03-03T23:10:41.224Z,99143.00
2023-03-03T23:16:03.120Z,99147.13
2023-03-03T23:21:24.941Z,99146.31
2023-03-03T23:26:46.703Z,99144.56
2023-03-03T23:32:08.506Z,99144.66
2023-03-03T23:37:30.334Z,99150.47
2023-03-03T23:42:52.102Z,99153.03
2023-03-03T23:48:13.942Z,99157.34
2023-03-03T23:53:35.645Z,99159.19
2023-03-03T23:58:57.411Z,99158.22
